sensor_id;sensor_type;location;lat;lon;timestamp;P1;durP1;ratioP1;P2;durP2;ratioP2
16139;SDS011;8175;49.326;12.690;2024-03-06T00:00:05;44.97;;;18.80;;
16139;SDS011;8175;49.326;12.690;2024-03-06T00:02:32;36.13;;;18.37;;
16139;SDS011;8175;49.326;12.690;2024-03-06T00:04:59;44.53;;;20.13;;
16139;SDS011;8175;49.326;12.690;2024-03-06T00:07:25;34.93;;;17.93;;
16139;SDS011;8175;49.326;12.690;2024-03-06T00:09:51;38.30;;;16.83;;
16139;SDS011;8175;49.326;12.690;2024-03-06T00:12:18;39.20;;;18.10;;
16139;SDS011;8175;49.326;12.690;2024-03-06T00:14:44;45.70;;;20.07;;
16139;SDS011;8175;49.326;12.690;2024-03-06T00:17:09;40.57;;;20.53;;
16139;SDS011;8175;49.326;12.690;2024-03-06T00:19:35;42.30;;;19.90;;
16139;SDS011;8175;49.326;12.690;2024-03-06T00:22:01;44.80;;;21.40;;
16139;SDS011;8175;49.326;12.690;2024-03-06T00:24:27;38.37;;;19.83;;
16139;SDS011;8175;49.326;12.690;2024-03-06T00:26:53;38.97;;;19.07;;
16139;SDS011;8175;49.326;12.690;2024-03-06T00:29:18;38.27;;;19.37;;
16139;SDS011;8175;49.326;12.690;2024-03-06T00:31:44;34.83;;;18.23;;
16139;SDS011;8175;49.326;12.690;2024-03-06T00:34:11;39.93;;;19.60;;
16139;SDS011;8175;49.326;12.690;2024-03-06T00:36:39;38.50;;;17.93;;
16139;SDS011;8175;49.326;12.690;2024-03-06T00:39:05;39.10;;;17.47;;
16139;SDS011;8175;49.326;12.690;2024-03-06T00:41:33;42.90;;;18.43;;
16139;SDS011;8175;49.326;12.690;2024-03-06T00:43:59;43.87;;;17.97;;
16139;SDS011;8175;49.326;12.690;2024-03-06T00:46:25;35.20;;;17.70;;
16139;SDS011;8175;49.326;12.690;2024-03-06T00:48:50;42.43;;;17.83;;
16139;SDS011;8175;49.326;12.690;2024-03-06T00:51:16;41.93;;;19.90;;
16139;SDS011;8175;49.326;12.690;2024-03-06T00:53:41;48.93;;;20.27;;
16139;SDS011;8175;49.326;12.690;2024-03-06T00:56:07;36.00;;;17.93;;
16139;SDS011;8175;49.326;12.690;2024-03-06T00:58:33;33.57;;;16.63;;
16139;SDS011;8175;49.326;12.690;2024-03-06T01:00:58;41.87;;;18.20;;
16139;SDS011;8175;49.326;12.690;2024-03-06T01:03:24;38.40;;;17.30;;
16139;SDS011;8175;49.326;12.690;2024-03-06T01:05:50;38.90;;;18.53;;
16139;SDS011;8175;49.326;12.690;2024-03-06T01:08:18;41.60;;;18.20;;
16139;SDS011;8175;49.326;12.690;2024-03-06T01:10:44;49.33;;;20.33;;
16139;SDS011;8175;49.326;12.690;2024-03-06T01:13:09;44.60;;;19.77;;
16139;SDS011;8175;49.326;12.690;2024-03-06T01:15:38;49.17;;;18.90;;
16139;SDS011;8175;49.326;12.690;2024-03-06T01:18:04;41.13;;;18.90;;
16139;SDS011;8175;49.326;12.690;2024-03-06T01:20:30;39.77;;;17.70;;
16139;SDS011;8175;49.326;12.690;2024-03-06T01:22:55;35.83;;;17.23;;
16139;SDS011;8175;49.326;12.690;2024-03-06T01:25:21;37.43;;;16.70;;
16139;SDS011;8175;49.326;12.690;2024-03-06T01:27:49;38.70;;;17.70;;
16139;SDS011;8175;49.326;12.690;2024-03-06T01:30:15;38.50;;;16.67;;
16139;SDS011;8175;49.326;12.690;2024-03-06T01:32:41;36.53;;;17.40;;
16139;SDS011;8175;49.326;12.690;2024-03-06T01:35:06;34.37;;;17.93;;
16139;SDS011;8175;49.326;12.690;2024-03-06T01:37:32;33.33;;;15.97;;
16139;SDS011;8175;49.326;12.690;2024-03-06T01:39:58;30.80;;;15.83;;
16139;SDS011;8175;49.326;12.690;2024-03-06T01:42:24;39.03;;;16.43;;
16139;SDS011;8175;49.326;12.690;2024-03-06T01:44:49;37.80;;;17.90;;
16139;SDS011;8175;49.326;12.690;2024-03-06T01:47:15;41.97;;;18.17;;
16139;SDS011;8175;49.326;12.690;2024-03-06T01:49:41;32.13;;;14.20;;
16139;SDS011;8175;49.326;12.690;2024-03-06T01:52:08;31.70;;;15.67;;
16139;SDS011;8175;49.326;12.690;2024-03-06T01:54:38;29.70;;;15.77;;
16139;SDS011;8175;49.326;12.690;2024-03-06T01:57:04;31.63;;;16.10;;
16139;SDS011;8175;49.326;12.690;2024-03-06T01:59:32;32.03;;;16.33;;
16139;SDS011;8175;49.326;12.690;2024-03-06T02:01:58;37.03;;;16.50;;
16139;SDS011;8175;49.326;12.690;2024-03-06T02:04:26;39.93;;;18.63;;
16139;SDS011;8175;49.326;12.690;2024-03-06T02:06:53;42.10;;;18.23;;
16139;SDS011;8175;49.326;12.690;2024-03-06T02:09:19;49.67;;;20.00;;
16139;SDS011;8175;49.326;12.690;2024-03-06T02:11:45;53.40;;;21.97;;
16139;SDS011;8175;49.326;12.690;2024-03-06T02:14:11;58.63;;;21.57;;
16139;SDS011;8175;49.326;12.690;2024-03-06T02:16:37;56.70;;;23.40;;
16139;SDS011;8175;49.326;12.690;2024-03-06T02:19:06;62.87;;;23.33;;
16139;SDS011;8175;49.326;12.690;2024-03-06T02:21:32;57.50;;;23.73;;
16139;SDS011;8175;49.326;12.690;2024-03-06T02:23:58;71.93;;;28.03;;
16139;SDS011;8175;49.326;12.690;2024-03-06T02:26:23;73.37;;;27.87;;
16139;SDS011;8175;49.326;12.690;2024-03-06T02:28:49;76.73;;;27.70;;
16139;SDS011;8175;49.326;12.690;2024-03-06T02:31:17;82.77;;;29.90;;
16139;SDS011;8175;49.326;12.690;2024-03-06T02:33:43;73.10;;;25.50;;
16139;SDS011;8175;49.326;12.690;2024-03-06T02:36:10;69.70;;;26.43;;
16139;SDS011;8175;49.326;12.690;2024-03-06T02:38:36;79.37;;;29.73;;
16139;SDS011;8175;49.326;12.690;2024-03-06T02:41:02;72.63;;;28.27;;
16139;SDS011;8175;49.326;12.690;2024-03-06T02:43:28;74.50;;;25.90;;
16139;SDS011;8175;49.326;12.690;2024-03-06T02:45:53;68.80;;;27.07;;
16139;SDS011;8175;49.326;12.690;2024-03-06T02:48:19;56.80;;;22.47;;
16139;SDS011;8175;49.326;12.690;2024-03-06T02:50:45;50.77;;;19.10;;
16139;SDS011;8175;49.326;12.690;2024-03-06T02:53:10;47.93;;;18.57;;
16139;SDS011;8175;49.326;12.690;2024-03-06T02:55:36;50.93;;;18.77;;
16139;SDS011;8175;49.326;12.690;2024-03-06T02:58:02;38.50;;;16.67;;
16139;SDS011;8175;49.326;12.690;2024-03-06T03:00:28;45.57;;;17.80;;
16139;SDS011;8175;49.326;12.690;2024-03-06T03:02:54;41.27;;;19.80;;
16139;SDS011;8175;49.326;12.690;2024-03-06T03:05:19;41.63;;;20.63;;
16139;SDS011;8175;49.326;12.690;2024-03-06T03:07:45;44.07;;;19.03;;
16139;SDS011;8175;49.326;12.690;2024-03-06T03:10:10;38.93;;;19.30;;
16139;SDS011;8175;49.326;12.690;2024-03-06T03:12:40;42.40;;;20.03;;
16139;SDS011;8175;49.326;12.690;2024-03-06T03:15:06;40.40;;;18.60;;
16139;SDS011;8175;49.326;12.690;2024-03-06T03:17:32;49.53;;;20.23;;
16139;SDS011;8175;49.326;12.690;2024-03-06T03:19:58;48.93;;;20.53;;
16139;SDS011;8175;49.326;12.690;2024-03-06T03:22:24;47.67;;;19.50;;
16139;SDS011;8175;49.326;12.690;2024-03-06T03:24:50;55.50;;;23.40;;
16139;SDS011;8175;49.326;12.690;2024-03-06T03:27:16;47.17;;;21.23;;
16139;SDS011;8175;49.326;12.690;2024-03-06T03:29:41;44.50;;;20.57;;
16139;SDS011;8175;49.326;12.690;2024-03-06T03:32:07;52.53;;;22.77;;
16139;SDS011;8175;49.326;12.690;2024-03-06T03:34:34;46.87;;;19.80;;
16139;SDS011;8175;49.326;12.690;2024-03-06T03:37:00;42.90;;;20.63;;
16139;SDS011;8175;49.326;12.690;2024-03-06T03:39:26;48.80;;;20.03;;
16139;SDS011;8175;49.326;12.690;2024-03-06T03:41:52;53.80;;;20.83;;
16139;SDS011;8175;49.326;12.690;2024-03-06T03:44:18;48.63;;;20.37;;
16139;SDS011;8175;49.326;12.690;2024-03-06T03:46:44;41.87;;;17.77;;
16139;SDS011;8175;49.326;12.690;2024-03-06T03:49:10;37.33;;;17.70;;
16139;SDS011;8175;49.326;12.690;2024-03-06T03:51:37;40.50;;;17.93;;
16139;SDS011;8175;49.326;12.690;2024-03-06T03:54:04;45.77;;;19.07;;
16139;SDS011;8175;49.326;12.690;2024-03-06T03:56:30;43.20;;;18.67;;
16139;SDS011;8175;49.326;12.690;2024-03-06T03:58:59;47.13;;;18.93;;
16139;SDS011;8175;49.326;12.690;2024-03-06T04:01:25;45.27;;;19.33;;
16139;SDS011;8175;49.326;12.690;2024-03-06T04:03:50;52.63;;;23.73;;
16139;SDS011;8175;49.326;12.690;2024-03-06T04:06:16;54.07;;;21.20;;
16139;SDS011;8175;49.326;12.690;2024-03-06T04:08:42;66.27;;;25.47;;
16139;SDS011;8175;49.326;12.690;2024-03-06T04:11:08;47.80;;;21.60;;
16139;SDS011;8175;49.326;12.690;2024-03-06T04:13:37;51.80;;;23.43;;
16139;SDS011;8175;49.326;12.690;2024-03-06T04:16:03;42.60;;;19.40;;
16139;SDS011;8175;49.326;12.690;2024-03-06T04:18:30;47.43;;;20.53;;
16139;SDS011;8175;49.326;12.690;2024-03-06T04:20:59;44.57;;;18.30;;
16139;SDS011;8175;49.326;12.690;2024-03-06T04:23:35;53.20;;;20.80;;
16139;SDS011;8175;49.326;12.690;2024-03-06T04:26:01;48.70;;;20.80;;
16139;SDS011;8175;49.326;12.690;2024-03-06T04:28:27;40.73;;;20.80;;
16139;SDS011;8175;49.326;12.690;2024-03-06T04:30:53;46.27;;;21.20;;
16139;SDS011;8175;49.326;12.690;2024-03-06T04:33:19;42.43;;;19.93;;
16139;SDS011;8175;49.326;12.690;2024-03-06T04:35:45;47.90;;;19.70;;
16139;SDS011;8175;49.326;12.690;2024-03-06T04:38:10;48.03;;;21.10;;
16139;SDS011;8175;49.326;12.690;2024-03-06T04:40:36;58.90;;;22.70;;
16139;SDS011;8175;49.326;12.690;2024-03-06T04:43:02;56.40;;;22.53;;
16139;SDS011;8175;49.326;12.690;2024-03-06T04:45:27;60.67;;;23.53;;
16139;SDS011;8175;49.326;12.690;2024-03-06T04:47:53;54.67;;;21.87;;
16139;SDS011;8175;49.326;12.690;2024-03-06T04:50:19;48.13;;;22.23;;
16139;SDS011;8175;49.326;12.690;2024-03-06T04:52:45;61.33;;;25.37;;
16139;SDS011;8175;49.326;12.690;2024-03-06T04:55:11;61.13;;;22.73;;
16139;SDS011;8175;49.326;12.690;2024-03-06T04:57:38;51.93;;;21.13;;
16139;SDS011;8175;49.326;12.690;2024-03-06T05:00:06;53.97;;;21.87;;
16139;SDS011;8175;49.326;12.690;2024-03-06T05:02:33;49.47;;;21.73;;
16139;SDS011;8175;49.326;12.690;2024-03-06T05:05:00;49.43;;;20.90;;
16139;SDS011;8175;49.326;12.690;2024-03-06T05:07:27;57.43;;;22.00;;
16139;SDS011;8175;49.326;12.690;2024-03-06T05:09:53;51.70;;;23.00;;
16139;SDS011;8175;49.326;12.690;2024-03-06T05:12:18;55.63;;;21.53;;
16139;SDS011;8175;49.326;12.690;2024-03-06T05:14:44;53.50;;;22.43;;
16139;SDS011;8175;49.326;12.690;2024-03-06T05:17:10;61.43;;;24.80;;
16139;SDS011;8175;49.326;12.690;2024-03-06T05:19:36;49.57;;;20.97;;
16139;SDS011;8175;49.326;12.690;2024-03-06T05:22:02;49.13;;;22.13;;
16139;SDS011;8175;49.326;12.690;2024-03-06T05:24:28;56.30;;;25.70;;
16139;SDS011;8175;49.326;12.690;2024-03-06T05:26:54;65.00;;;27.93;;
16139;SDS011;8175;49.326;12.690;2024-03-06T05:29:20;59.47;;;25.73;;
16139;SDS011;8175;49.326;12.690;2024-03-06T05:31:46;70.47;;;25.67;;
16139;SDS011;8175;49.326;12.690;2024-03-06T05:34:11;69.83;;;26.80;;
16139;SDS011;8175;49.326;12.690;2024-03-06T05:36:37;66.03;;;28.03;;
16139;SDS011;8175;49.326;12.690;2024-03-06T05:39:02;66.63;;;29.03;;
16139;SDS011;8175;49.326;12.690;2024-03-06T05:41:38;67.07;;;30.20;;
16139;SDS011;8175;49.326;12.690;2024-03-06T05:44:05;65.00;;;25.20;;
16139;SDS011;8175;49.326;12.690;2024-03-06T05:46:30;64.10;;;25.67;;
16139;SDS011;8175;49.326;12.690;2024-03-06T05:48:56;61.77;;;26.80;;
16139;SDS011;8175;49.326;12.690;2024-03-06T05:51:21;57.43;;;25.63;;
16139;SDS011;8175;49.326;12.690;2024-03-06T05:53:47;53.73;;;23.97;;
16139;SDS011;8175;49.326;12.690;2024-03-06T05:56:13;57.00;;;25.33;;
16139;SDS011;8175;49.326;12.690;2024-03-06T05:58:38;55.93;;;25.33;;
16139;SDS011;8175;49.326;12.690;2024-03-06T06:01:04;60.57;;;27.10;;
16139;SDS011;8175;49.326;12.690;2024-03-06T06:03:30;59.80;;;26.47;;
16139;SDS011;8175;49.326;12.690;2024-03-06T06:05:56;55.10;;;26.80;;
16139;SDS011;8175;49.326;12.690;2024-03-06T06:08:22;56.93;;;25.77;;
16139;SDS011;8175;49.326;12.690;2024-03-06T06:10:49;48.47;;;22.43;;
16139;SDS011;8175;49.326;12.690;2024-03-06T06:13:16;53.27;;;24.17;;
16139;SDS011;8175;49.326;12.690;2024-03-06T06:15:42;45.83;;;22.43;;
16139;SDS011;8175;49.326;12.690;2024-03-06T06:18:08;46.37;;;20.60;;
16139;SDS011;8175;49.326;12.690;2024-03-06T06:20:33;47.57;;;23.13;;
16139;SDS011;8175;49.326;12.690;2024-03-06T06:23:00;41.90;;;19.50;;
16139;SDS011;8175;49.326;12.690;2024-03-06T06:25:26;43.63;;;19.97;;
16139;SDS011;8175;49.326;12.690;2024-03-06T06:27:51;40.47;;;21.93;;
16139;SDS011;8175;49.326;12.690;2024-03-06T06:30:17;36.73;;;19.43;;
16139;SDS011;8175;49.326;12.690;2024-03-06T06:32:44;38.53;;;20.57;;
16139;SDS011;8175;49.326;12.690;2024-03-06T06:35:10;33.83;;;19.30;;
16139;SDS011;8175;49.326;12.690;2024-03-06T06:37:39;35.03;;;19.93;;
16139;SDS011;8175;49.326;12.690;2024-03-06T06:40:08;37.90;;;20.43;;
16139;SDS011;8175;49.326;12.690;2024-03-06T06:42:34;33.77;;;18.50;;
16139;SDS011;8175;49.326;12.690;2024-03-06T06:45:01;27.30;;;16.63;;
16139;SDS011;8175;49.326;12.690;2024-03-06T06:47:27;29.90;;;17.40;;
16139;SDS011;8175;49.326;12.690;2024-03-06T06:49:53;30.03;;;17.17;;
16139;SDS011;8175;49.326;12.690;2024-03-06T06:52:19;27.43;;;16.27;;
16139;SDS011;8175;49.326;12.690;2024-03-06T06:54:44;30.17;;;16.50;;
16139;SDS011;8175;49.326;12.690;2024-03-06T06:57:10;26.03;;;15.87;;
16139;SDS011;8175;49.326;12.690;2024-03-06T06:59:36;25.13;;;16.03;;
16139;SDS011;8175;49.326;12.690;2024-03-06T07:02:02;31.57;;;16.83;;
16139;SDS011;8175;49.326;12.690;2024-03-06T07:04:28;31.40;;;18.63;;
16139;SDS011;8175;49.326;12.690;2024-03-06T07:06:53;61.63;;;35.67;;
16139;SDS011;8175;49.326;12.690;2024-03-06T07:09:19;37.07;;;24.17;;
16139;SDS011;8175;49.326;12.690;2024-03-06T07:11:45;43.10;;;25.57;;
16139;SDS011;8175;49.326;12.690;2024-03-06T07:14:14;41.50;;;29.80;;
16139;SDS011;8175;49.326;12.690;2024-03-06T07:16:43;29.80;;;20.50;;
16139;SDS011;8175;49.326;12.690;2024-03-06T07:19:09;28.77;;;17.70;;
16139;SDS011;8175;49.326;12.690;2024-03-06T07:21:35;23.37;;;14.63;;
16139;SDS011;8175;49.326;12.690;2024-03-06T07:24:02;27.37;;;16.27;;
16139;SDS011;8175;49.326;12.690;2024-03-06T07:26:28;23.43;;;14.80;;
16139;SDS011;8175;49.326;12.690;2024-03-06T07:28:55;32.00;;;18.00;;
16139;SDS011;8175;49.326;12.690;2024-03-06T07:31:21;24.50;;;16.23;;
16139;SDS011;8175;49.326;12.690;2024-03-06T07:33:46;28.50;;;15.63;;
16139;SDS011;8175;49.326;12.690;2024-03-06T07:36:12;26.13;;;16.13;;
16139;SDS011;8175;49.326;12.690;2024-03-06T07:38:38;26.10;;;15.80;;
16139;SDS011;8175;49.326;12.690;2024-03-06T07:41:03;26.67;;;15.83;;
16139;SDS011;8175;49.326;12.690;2024-03-06T07:43:29;24.83;;;15.23;;
16139;SDS011;8175;49.326;12.690;2024-03-06T07:45:54;24.23;;;14.90;;
16139;SDS011;8175;49.326;12.690;2024-03-06T07:48:20;25.70;;;16.23;;
16139;SDS011;8175;49.326;12.690;2024-03-06T07:50:46;26.60;;;16.20;;
16139;SDS011;8175;49.326;12.690;2024-03-06T07:53:11;23.07;;;14.87;;
16139;SDS011;8175;49.326;12.690;2024-03-06T07:55:37;25.10;;;15.70;;
16139;SDS011;8175;49.326;12.690;2024-03-06T07:58:04;23.70;;;15.87;;
16139;SDS011;8175;49.326;12.690;2024-03-06T08:00:29;24.10;;;14.73;;
16139;SDS011;8175;49.326;12.690;2024-03-06T08:02:56;25.73;;;16.00;;
16139;SDS011;8175;49.326;12.690;2024-03-06T08:05:22;23.13;;;13.67;;
16139;SDS011;8175;49.326;12.690;2024-03-06T08:07:47;23.97;;;15.23;;
16139;SDS011;8175;49.326;12.690;2024-03-06T08:10:13;24.07;;;15.73;;
16139;SDS011;8175;49.326;12.690;2024-03-06T08:12:40;24.63;;;16.03;;
16139;SDS011;8175;49.326;12.690;2024-03-06T08:15:07;26.27;;;16.17;;
16139;SDS011;8175;49.326;12.690;2024-03-06T08:17:34;26.90;;;16.03;;
16139;SDS011;8175;49.326;12.690;2024-03-06T08:20:01;24.50;;;14.70;;
16139;SDS011;8175;49.326;12.690;2024-03-06T08:22:32;23.27;;;14.87;;
16139;SDS011;8175;49.326;12.690;2024-03-06T08:27:36;24.27;;;14.33;;
16139;SDS011;8175;49.326;12.690;2024-03-06T08:30:03;24.23;;;14.33;;
16139;SDS011;8175;49.326;12.690;2024-03-06T08:32:30;21.20;;;13.90;;
16139;SDS011;8175;49.326;12.690;2024-03-06T08:35:03;22.23;;;13.83;;
16139;SDS011;8175;49.326;12.690;2024-03-06T08:37:39;20.80;;;13.33;;
16139;SDS011;8175;49.326;12.690;2024-03-06T08:40:09;21.27;;;13.70;;
16139;SDS011;8175;49.326;12.690;2024-03-06T08:42:39;19.57;;;13.00;;
16139;SDS011;8175;49.326;12.690;2024-03-06T08:45:14;20.13;;;14.40;;
16139;SDS011;8175;49.326;12.690;2024-03-06T08:47:41;19.63;;;12.70;;
16139;SDS011;8175;49.326;12.690;2024-03-06T08:50:07;20.50;;;13.87;;
16139;SDS011;8175;49.326;12.690;2024-03-06T08:52:34;20.70;;;13.37;;
16139;SDS011;8175;49.326;12.690;2024-03-06T08:55:01;22.37;;;14.63;;
16139;SDS011;8175;49.326;12.690;2024-03-06T08:57:29;22.73;;;15.50;;
16139;SDS011;8175;49.326;12.690;2024-03-06T08:59:56;23.37;;;15.93;;
16139;SDS011;8175;49.326;12.690;2024-03-06T09:02:22;21.57;;;14.17;;
16139;SDS011;8175;49.326;12.690;2024-03-06T09:04:47;22.23;;;16.30;;
16139;SDS011;8175;49.326;12.690;2024-03-06T09:07:13;22.03;;;14.60;;
16139;SDS011;8175;49.326;12.690;2024-03-06T09:09:39;19.83;;;14.40;;
16139;SDS011;8175;49.326;12.690;2024-03-06T09:12:06;21.60;;;14.33;;
16139;SDS011;8175;49.326;12.690;2024-03-06T09:14:35;23.40;;;15.33;;
16139;SDS011;8175;49.326;12.690;2024-03-06T09:17:02;20.37;;;14.90;;
16139;SDS011;8175;49.326;12.690;2024-03-06T09:19:28;21.27;;;13.60;;
16139;SDS011;8175;49.326;12.690;2024-03-06T09:21:54;23.43;;;16.33;;
16139;SDS011;8175;49.326;12.690;2024-03-06T09:24:20;25.33;;;16.07;;
16139;SDS011;8175;49.326;12.690;2024-03-06T09:26:48;22.97;;;14.63;;
16139;SDS011;8175;49.326;12.690;2024-03-06T09:29:14;22.83;;;16.23;;
16139;SDS011;8175;49.326;12.690;2024-03-06T09:31:40;22.67;;;16.37;;
16139;SDS011;8175;49.326;12.690;2024-03-06T09:34:06;20.03;;;15.00;;
16139;SDS011;8175;49.326;12.690;2024-03-06T09:36:32;22.00;;;17.10;;
16139;SDS011;8175;49.326;12.690;2024-03-06T09:38:58;22.23;;;16.47;;
16139;SDS011;8175;49.326;12.690;2024-03-06T09:41:24;24.00;;;16.33;;
16139;SDS011;8175;49.326;12.690;2024-03-06T09:43:50;22.57;;;15.83;;
16139;SDS011;8175;49.326;12.690;2024-03-06T09:46:16;25.93;;;16.30;;
16139;SDS011;8175;49.326;12.690;2024-03-06T09:48:46;23.13;;;15.90;;
16139;SDS011;8175;49.326;12.690;2024-03-06T09:51:13;23.90;;;17.07;;
16139;SDS011;8175;49.326;12.690;2024-03-06T09:53:39;20.40;;;15.17;;
16139;SDS011;8175;49.326;12.690;2024-03-06T09:56:07;20.07;;;14.83;;
16139;SDS011;8175;49.326;12.690;2024-03-06T09:58:33;20.77;;;15.47;;
16139;SDS011;8175;49.326;12.690;2024-03-06T10:01:00;22.00;;;17.13;;
16139;SDS011;8175;49.326;12.690;2024-03-06T10:03:28;21.73;;;15.63;;
16139;SDS011;8175;49.326;12.690;2024-03-06T10:05:54;25.00;;;17.33;;
16139;SDS011;8175;49.326;12.690;2024-03-06T10:08:21;23.77;;;16.27;;
16139;SDS011;8175;49.326;12.690;2024-03-06T10:10:50;23.00;;;16.50;;
16139;SDS011;8175;49.326;12.690;2024-03-06T10:13:16;25.03;;;17.97;;
16139;SDS011;8175;49.326;12.690;2024-03-06T10:15:42;19.63;;;15.80;;
16139;SDS011;8175;49.326;12.690;2024-03-06T10:18:22;20.50;;;15.57;;
16139;SDS011;8175;49.326;12.690;2024-03-06T10:20:55;20.43;;;15.63;;
16139;SDS011;8175;49.326;12.690;2024-03-06T10:23:21;22.43;;;15.73;;
16139;SDS011;8175;49.326;12.690;2024-03-06T10:25:48;20.47;;;15.67;;
16139;SDS011;8175;49.326;12.690;2024-03-06T10:28:21;23.97;;;17.43;;
16139;SDS011;8175;49.326;12.690;2024-03-06T10:30:48;21.50;;;16.23;;
16139;SDS011;8175;49.326;12.690;2024-03-06T10:33:14;20.40;;;16.73;;
16139;SDS011;8175;49.326;12.690;2024-03-06T10:35:44;22.10;;;16.63;;
16139;SDS011;8175;49.326;12.690;2024-03-06T10:38:11;22.60;;;16.23;;
16139;SDS011;8175;49.326;12.690;2024-03-06T10:40:38;20.93;;;15.77;;
16139;SDS011;8175;49.326;12.690;2024-03-06T10:43:05;22.43;;;17.03;;
16139;SDS011;8175;49.326;12.690;2024-03-06T10:48:13;18.38;;;14.85;;
16139;SDS011;8175;49.326;12.690;2024-03-06T10:50:40;19.63;;;15.55;;
16139;SDS011;8175;49.326;12.690;2024-03-06T10:53:16;21.27;;;16.10;;
16139;SDS011;8175;49.326;12.690;2024-03-06T10:55:42;19.47;;;14.53;;
16139;SDS011;8175;49.326;12.690;2024-03-06T10:58:12;19.27;;;15.50;;
16139;SDS011;8175;49.326;12.690;2024-03-06T11:00:42;17.73;;;14.27;;
16139;SDS011;8175;49.326;12.690;2024-03-06T11:03:11;18.73;;;15.33;;
16139;SDS011;8175;49.326;12.690;2024-03-06T11:05:37;18.00;;;13.63;;
16139;SDS011;8175;49.326;12.690;2024-03-06T11:08:05;18.07;;;14.60;;
16139;SDS011;8175;49.326;12.690;2024-03-06T11:10:36;20.37;;;15.30;;
16139;SDS011;8175;49.326;12.690;2024-03-06T11:13:08;21.43;;;14.97;;
16139;SDS011;8175;49.326;12.690;2024-03-06T11:15:56;20.90;;;15.23;;
16139;SDS011;8175;49.326;12.690;2024-03-06T11:23:26;21.97;;;14.87;;
16139;SDS011;8175;49.326;12.690;2024-03-06T11:28:24;22.27;;;15.57;;
16139;SDS011;8175;49.326;12.690;2024-03-06T11:33:20;22.53;;;15.67;;
16139;SDS011;8175;49.326;12.690;2024-03-06T11:38:42;21.83;;;14.50;;
16139;SDS011;8175;49.326;12.690;2024-03-06T11:41:24;20.00;;;14.27;;
16139;SDS011;8175;49.326;12.690;2024-03-06T11:44:18;20.27;;;14.33;;
16139;SDS011;8175;49.326;12.690;2024-03-06T11:46:49;19.30;;;13.47;;
16139;SDS011;8175;49.326;12.690;2024-03-06T11:51:53;21.60;;;14.20;;
16139;SDS011;8175;49.326;12.690;2024-03-06T11:54:30;20.07;;;14.07;;
16139;SDS011;8175;49.326;12.690;2024-03-06T11:56:57;19.07;;;14.27;;
16139;SDS011;8175;49.326;12.690;2024-03-06T11:59:34;20.27;;;13.47;;
16139;SDS011;8175;49.326;12.690;2024-03-06T12:02:01;22.47;;;13.77;;
16139;SDS011;8175;49.326;12.690;2024-03-06T12:04:29;19.17;;;13.50;;
16139;SDS011;8175;49.326;12.690;2024-03-06T12:06:59;19.00;;;13.17;;
16139;SDS011;8175;49.326;12.690;2024-03-06T12:09:30;19.53;;;13.00;;
16139;SDS011;8175;49.326;12.690;2024-03-06T12:11:56;15.73;;;12.37;;
16139;SDS011;8175;49.326;12.690;2024-03-06T12:14:25;17.27;;;12.67;;
16139;SDS011;8175;49.326;12.690;2024-03-06T12:16:58;16.40;;;11.87;;
16139;SDS011;8175;49.326;12.690;2024-03-06T12:19:25;16.23;;;11.47;;
16139;SDS011;8175;49.326;12.690;2024-03-06T12:21:53;15.40;;;11.10;;
16139;SDS011;8175;49.326;12.690;2024-03-06T12:24:19;15.03;;;11.27;;
16139;SDS011;8175;49.326;12.690;2024-03-06T12:26:45;15.07;;;10.90;;
16139;SDS011;8175;49.326;12.690;2024-03-06T12:29:16;14.23;;;9.87;;
16139;SDS011;8175;49.326;12.690;2024-03-06T12:31:44;12.70;;;10.07;;
16139;SDS011;8175;49.326;12.690;2024-03-06T12:34:13;12.35;;;10.20;;
16139;SDS011;8175;49.326;12.690;2024-03-06T12:36:42;13.02;;;10.70;;
16139;SDS011;8175;49.326;12.690;2024-03-06T12:39:07;15.48;;;10.57;;
16139;SDS011;8175;49.326;12.690;2024-03-06T12:41:38;13.70;;;11.98;;
16139;SDS011;8175;49.326;12.690;2024-03-06T12:44:05;17.20;;;14.52;;
16139;SDS011;8175;49.326;12.690;2024-03-06T12:46:32;17.63;;;14.20;;
16139;SDS011;8175;49.326;12.690;2024-03-06T12:48:57;18.13;;;14.47;;
16139;SDS011;8175;49.326;12.690;2024-03-06T12:51:23;16.97;;;13.20;;
16139;SDS011;8175;49.326;12.690;2024-03-06T12:53:49;20.03;;;13.83;;
16139;SDS011;8175;49.326;12.690;2024-03-06T12:56:15;19.80;;;13.70;;
16139;SDS011;8175;49.326;12.690;2024-03-06T12:58:40;18.40;;;13.93;;
16139;SDS011;8175;49.326;12.690;2024-03-06T13:01:06;17.93;;;14.10;;
16139;SDS011;8175;49.326;12.690;2024-03-06T13:03:32;19.07;;;14.63;;
16139;SDS011;8175;49.326;12.690;2024-03-06T13:05:58;22.03;;;16.23;;
16139;SDS011;8175;49.326;12.690;2024-03-06T13:08:24;21.07;;;16.87;;
16139;SDS011;8175;49.326;12.690;2024-03-06T13:10:50;21.10;;;13.93;;
16139;SDS011;8175;49.326;12.690;2024-03-06T13:13:15;16.73;;;10.93;;
16139;SDS011;8175;49.326;12.690;2024-03-06T13:15:41;14.90;;;10.70;;
16139;SDS011;8175;49.326;12.690;2024-03-06T13:18:07;13.80;;;9.57;;
16139;SDS011;8175;49.326;12.690;2024-03-06T13:20:33;15.57;;;11.10;;
16139;SDS011;8175;49.326;12.690;2024-03-06T13:22:59;17.80;;;10.63;;
16139;SDS011;8175;49.326;12.690;2024-03-06T13:25:25;15.60;;;10.50;;
16139;SDS011;8175;49.326;12.690;2024-03-06T13:27:51;13.00;;;10.57;;
16139;SDS011;8175;49.326;12.690;2024-03-06T13:30:17;16.23;;;11.50;;
16139;SDS011;8175;49.326;12.690;2024-03-06T13:32:43;17.73;;;12.47;;
16139;SDS011;8175;49.326;12.690;2024-03-06T13:35:10;18.70;;;13.10;;
16139;SDS011;8175;49.326;12.690;2024-03-06T13:37:39;20.73;;;14.37;;
16139;SDS011;8175;49.326;12.690;2024-03-06T13:40:06;22.20;;;14.47;;
16139;SDS011;8175;49.326;12.690;2024-03-06T13:42:34;19.37;;;13.63;;
16139;SDS011;8175;49.326;12.690;2024-03-06T13:45:00;23.77;;;15.37;;
16139;SDS011;8175;49.326;12.690;2024-03-06T13:47:26;23.63;;;14.63;;
16139;SDS011;8175;49.326;12.690;2024-03-06T13:49:52;22.03;;;15.10;;
16139;SDS011;8175;49.326;12.690;2024-03-06T13:52:17;21.63;;;14.83;;
16139;SDS011;8175;49.326;12.690;2024-03-06T13:54:46;24.73;;;15.80;;
16139;SDS011;8175;49.326;12.690;2024-03-06T13:57:13;25.93;;;15.97;;
16139;SDS011;8175;49.326;12.690;2024-03-06T13:59:39;22.87;;;16.00;;
16139;SDS011;8175;49.326;12.690;2024-03-06T14:02:05;24.70;;;15.70;;
16139;SDS011;8175;49.326;12.690;2024-03-06T14:04:31;24.17;;;14.43;;
16139;SDS011;8175;49.326;12.690;2024-03-06T14:06:57;24.73;;;15.17;;
16139;SDS011;8175;49.326;12.690;2024-03-06T14:09:24;23.40;;;15.53;;
16139;SDS011;8175;49.326;12.690;2024-03-06T14:11:51;19.47;;;13.63;;
16139;SDS011;8175;49.326;12.690;2024-03-06T14:14:17;18.50;;;13.63;;
16139;SDS011;8175;49.326;12.690;2024-03-06T14:16:43;20.10;;;13.20;;
16139;SDS011;8175;49.326;12.690;2024-03-06T14:19:09;18.40;;;13.33;;
16139;SDS011;8175;49.326;12.690;2024-03-06T14:21:36;19.30;;;14.23;;
16139;SDS011;8175;49.326;12.690;2024-03-06T14:24:02;17.70;;;13.03;;
16139;SDS011;8175;49.326;12.690;2024-03-06T14:26:29;19.53;;;13.80;;
16139;SDS011;8175;49.326;12.690;2024-03-06T14:28:55;21.00;;;14.20;;
16139;SDS011;8175;49.326;12.690;2024-03-06T14:31:21;20.33;;;14.80;;
16139;SDS011;8175;49.326;12.690;2024-03-06T14:33:47;23.37;;;14.90;;
16139;SDS011;8175;49.326;12.690;2024-03-06T14:36:14;22.23;;;14.90;;
16139;SDS011;8175;49.326;12.690;2024-03-06T14:38:39;21.37;;;14.20;;